Time;durP1;ratioP1;P1;durP2;ratioP2;P2;SDS_P1;SDS_P2;PMS_P1;PMS_P2;Temp;Humidity;BMP_temperature;BMP_pressure;BME280_temperature;BME280_humidity;BME280_pressure;Samples;Min_cycle;Max_cycle;Signal;HPM_P1;HPM_P2
2023/08/11 00:01:15;;;;;;;3.70;3.27;;;;;;;16.64;100.00;100684.88;4979410;28;20208;-78
2023/08/11 00:03:43;;;;;;;5.00;3.43;;;;;;;16.57;100.00;100679.81;4980535;28;20184;-77
2023/08/11 00:06:08;;;;;;;4.50;3.60;;;;;;;16.54;100.00;100684.25;4978266;28;20212;-76
2023/08/11 00:08:36;;;;;;;4.27;3.47;;;;;;;16.48;100.00;100682.69;4984363;28;20669;-76
2023/08/11 00:11:02;;;;;;;3.97;3.13;;;;;;;16.44;100.00;100681.88;4985868;28;20209;-76
2023/08/11 00:13:27;;;;;;;4.07;3.23;;;;;;;16.43;100.00;100687.16;4988824;28;20763;-78
2023/08/11 00:15:53;;;;;;;4.80;3.20;;;;;;;16.41;100.00;100692.41;4987630;28;20197;-78
2023/08/11 00:18:19;;;;;;;3.93;3.50;;;;;;;16.41;100.00;100694.19;4987797;28;20304;-77
2023/08/11 00:20:45;;;;;;;4.17;3.77;;;;;;;16.41;100.00;100697.63;4982973;28;20280;-77
2023/08/11 00:23:10;;;;;;;4.17;3.27;;;;;;;16.42;100.00;100695.91;4981869;28;20206;-77
2023/08/11 00:25:35;;;;;;;4.23;3.53;;;;;;;16.42;100.00;100691.50;4984886;28;20219;-78
2023/08/11 00:28:01;;;;;;;4.47;3.63;;;;;;;16.43;100.00;100700.22;4991817;28;20239;-77
2023/08/11 00:30:26;;;;;;;4.90;3.30;;;;;;;16.41;100.00;100694.19;4988857;28;20192;-77
2023/08/11 00:32:52;;;;;;;5.50;3.70;;;;;;;16.40;100.00;100697.69;4981941;28;20836;-76
2023/08/11 00:35:17;;;;;;;7.53;3.97;;;;;;;16.39;100.00;100695.97;5001220;28;20933;-77
2023/08/11 00:37:43;;;;;;;6.90;3.90;;;;;;;16.38;100.00;100699.47;4977901;28;20186;-77
2023/08/11 00:40:08;;;;;;;4.67;3.87;;;;;;;16.37;100.00;100696.03;4986009;28;20221;-77
2023/08/11 00:42:35;;;;;;;4.73;3.47;;;;;;;16.38;100.00;100705.56;4987494;28;20570;-76
2023/08/11 00:45:00;;;;;;;6.07;4.70;;;;;;;16.39;100.00;100701.19;5002888;28;20200;-76
2023/08/11 00:47:30;;;;;;;5.87;3.83;;;;;;;16.39;100.00;100701.19;4985230;28;20577;-77
2023/08/11 00:49:56;;;;;;;6.43;3.63;;;;;;;16.40;100.00;100700.31;4982134;28;20255;-77
2023/08/11 00:52:22;;;;;;;7.50;3.97;;;;;;;16.40;100.00;100708.13;4983584;28;20208;-76
2023/08/11 00:54:47;;;;;;;7.53;4.20;;;;;;;16.40;100.00;100703.78;4984158;28;20251;-77
2023/08/11 00:57:13;;;;;;;12.00;4.03;;;;;;;16.39;100.00;100709.03;4983086;28;20197;-77
2023/08/11 00:59:39;;;;;;;8.00;4.43;;;;;;;16.37;100.00;100706.47;4984175;28;20193;-77
2023/08/11 01:02:05;;;;;;;9.67;4.10;;;;;;;16.32;100.00;100703.13;4988065;28;20713;-76
2023/08/11 01:04:30;;;;;;;8.17;3.83;;;;;;;16.29;100.00;100711.03;5003343;28;20244;-77
2023/08/11 01:07:01;;;;;;;7.07;3.93;;;;;;;16.24;100.00;100702.47;4988185;28;20217;-77
2023/08/11 01:09:41;;;;;;;3.80;3.40;;;;;;;16.19;100.00;100702.56;4985048;28;20196;-77
2023/08/11 01:12:29;;;;;;;5.80;3.60;;;;;;;16.14;100.00;100694.84;4985337;28;20271;-76
2023/08/11 01:15:19;;;;;;;5.53;3.60;;;;;;;16.13;100.00;100698.34;4990664;28;20188;-77
2023/08/11 01:17:49;;;;;;;3.97;3.43;;;;;;;16.10;100.00;100690.63;4987654;28;20189;-77
2023/08/11 01:20:16;;;;;;;6.37;4.17;;;;;;;16.09;100.00;100695.88;4980438;28;20185;-78
2023/08/11 01:22:46;;;;;;;8.40;4.13;;;;;;;16.06;100.00;100693.34;4987926;28;20216;-77
2023/08/11 01:25:12;;;;;;;8.00;3.80;;;;;;;16.00;100.00;100691.75;4982064;28;20197;-77
2023/08/11 01:27:58;;;;;;;9.33;3.87;;;;;;;15.98;100.00;100698.75;4981341;28;20261;-78
2023/08/11 01:30:24;;;;;;;7.37;3.93;;;;;;;15.93;100.00;100695.41;4985705;28;20196;-77
2023/08/11 01:32:53;;;;;;;8.53;4.03;;;;;;;15.89;100.00;100688.53;5005896;28;20239;-77
2023/08/11 01:35:22;;;;;;;5.97;4.00;;;;;;;15.86;100.00;100699.94;4989018;28;20205;-78
2023/08/11 01:37:48;;;;;;;6.13;4.17;;;;;;;15.84;100.00;100697.31;4986082;28;20185;-77
2023/08/11 01:40:14;;;;;;;6.40;4.10;;;;;;;15.82;100.00;100693.03;4972347;28;20267;-78
2023/08/11 01:42:44;;;;;;;4.93;4.10;;;;;;;15.79;100.00;100693.09;4984277;28;20209;-77
2023/08/11 01:45:15;;;;;;;7.90;4.00;;;;;;;15.75;100.00;100700.16;4989424;28;20193;-77
2023/08/11 01:47:45;;;;;;;5.27;3.53;;;;;;;15.72;100.00;100707.19;4987599;28;20215;-77
2023/08/11 01:50:13;;;;;;;5.97;3.73;;;;;;;15.70;100.00;100702.88;4984489;28;20193;-77
2023/08/11 01:52:41;;;;;;;4.40;3.87;;;;;;;15.68;100.00;100696.84;4985710;28;20217;-78
2023/08/11 01:55:09;;;;;;;5.27;3.93;;;;;;;15.68;100.00;100703.78;4989621;28;20185;-78
2023/08/11 01:57:35;;;;;;;8.87;4.57;;;;;;;15.64;100.00;100708.22;4981282;28;20186;-78
2023/08/11 02:00:01;;;;;;;6.20;4.73;;;;;;;15.61;100.00;100700.47;4988940;28;20202;-79
2023/08/11 02:02:26;;;;;;;4.87;4.43;;;;;;;15.63;100.00;100698.69;4986487;28;20612;-77
2023/08/11 02:04:51;;;;;;;7.33;4.00;;;;;;;15.64;100.00;100708.22;4986496;28;20716;-79
2023/08/11 02:07:17;;;;;;;4.93;3.80;;;;;;;15.64;100.00;100695.19;4986045;28;20216;-78
2023/08/11 02:09:42;;;;;;;4.20;3.80;;;;;;;15.65;100.00;100701.28;4984464;28;20197;-79
2023/08/11 02:12:07;;;;;;;9.03;4.00;;;;;;;15.61;100.00;100705.69;4987233;28;20220;-79
2023/08/11 02:14:33;;;;;;;6.03;4.43;;;;;;;15.61;100.00;100710.06;4993825;28;20188;-77
2023/08/11 02:16:59;;;;;;;4.57;4.00;;;;;;;15.60;100.00;100713.56;4986645;28;20190;-77
2023/08/11 02:19:26;;;;;;;5.40;4.10;;;;;;;15.57;100.00;100709.28;4983011;28;20220;-77
2023/08/11 02:21:53;;;;;;;4.93;4.40;;;;;;;15.55;100.00;100709.28;4991001;28;20872;-78
2023/08/11 02:24:18;;;;;;;4.00;3.60;;;;;;;15.56;100.00;100712.78;4984233;28;20251;-78
2023/08/11 02:26:43;;;;;;;4.80;4.00;;;;;;;15.56;100.00;100710.16;4999418;28;20214;-78
2023/08/11 02:29:09;;;;;;;9.70;4.33;;;;;;;15.59;100.00;100707.47;4997386;28;20189;-78
2023/08/11 02:31:34;;;;;;;5.67;3.90;;;;;;;15.62;100.00;100711.78;4984554;28;20258;-77
2023/08/11 02:34:00;;;;;;;4.97;3.73;;;;;;;15.63;100.00;100711.72;4982986;28;20197;-77
2023/08/11 02:36:25;;;;;;;4.03;3.60;;;;;;;15.64;100.00;100704.78;4988577;28;20251;-78
2023/08/11 02:38:54;;;;;;;4.43;3.90;;;;;;;15.64;100.00;100703.00;4985769;28;20203;-77
2023/08/11 02:41:20;;;;;;;4.43;4.03;;;;;;;15.64;100.00;100702.16;4979165;28;20259;-76
2023/08/11 02:43:45;;;;;;;5.57;3.83;;;;;;;15.64;100.00;100695.19;4988114;28;20191;-77
2023/08/11 02:46:11;;;;;;;4.00;3.60;;;;;;;15.65;100.00;100698.66;4986439;28;20200;-78
2023/08/11 02:48:38;;;;;;;4.27;3.87;;;;;;;15.64;100.00;100695.19;4979108;28;20641;-76
2023/08/11 02:51:04;;;;;;;4.10;3.70;;;;;;;15.65;100.00;100683.00;4988045;28;20287;-76
2023/08/11 02:53:29;;;;;;;4.20;3.80;;;;;;;15.65;100.00;100678.63;4989633;28;20740;-76
2023/08/11 02:56:00;;;;;;;4.17;3.77;;;;;;;15.65;100.00;100672.56;4983564;28;20191;-76
2023/08/11 02:58:26;;;;;;;3.97;3.67;;;;;;;15.63;100.00;100667.38;4983877;28;20194;-76
2023/08/11 03:00:52;;;;;;;3.67;3.37;;;;;;;15.64;100.00;100668.25;5005563;28;20799;-77
2023/08/11 03:03:17;;;;;;;3.60;3.40;;;;;;;15.61;100.00;100669.16;4984304;28;20193;-79
2023/08/11 03:05:43;;;;;;;3.53;3.23;;;;;;;15.61;100.00;100678.75;4997730;28;20279;-76
2023/08/11 03:08:09;;;;;;;3.60;3.30;;;;;;;15.57;100.00;100680.59;4997922;28;20593;-76
2023/08/11 03:10:34;;;;;;;4.13;3.83;;;;;;;15.54;100.00;100673.66;4984672;28;20687;-78
2023/08/11 03:12:59;;;;;;;3.87;3.47;;;;;;;15.50;100.00;100671.16;4978793;28;20219;-76
2023/08/11 03:15:25;;;;;;;4.07;3.63;;;;;;;15.47;100.00;100666.00;4991698;28;20187;-77
2023/08/11 03:17:50;;;;;;;4.93;3.77;;;;;;;15.43;100.00;100673.06;4976315;28;20193;-76
2023/08/11 03:20:16;;;;;;;4.20;3.80;;;;;;;15.39;100.00;100668.81;4971838;28;20235;-76
2023/08/11 03:22:45;;;;;;;4.00;3.60;;;;;;;15.34;100.00;100674.13;4979654;28;20270;-76
2023/08/11 03:25:14;;;;;;;4.43;3.60;;;;;;;15.32;100.00;100673.31;4975610;28;20200;-76
2023/08/11 03:27:42;;;;;;;6.87;4.13;;;;;;;15.29;100.00;100682.94;4983076;28;20201;-76
2023/08/11 03:30:10;;;;;;;4.10;3.70;;;;;;;15.26;100.00;100683.88;4987228;28;20189;-76
2023/08/11 03:32:36;;;;;;;3.63;3.33;;;;;;;15.23;100.00;100676.13;4988287;28;20300;-76
2023/08/11 03:35:04;;;;;;;4.30;4.00;;;;;;;15.23;100.00;100686.56;4979597;28;20567;-76
2023/08/11 03:37:29;;;;;;;4.37;3.97;;;;;;;15.21;100.00;100694.38;4998102;28;20192;-76
2023/08/11 03:39:55;;;;;;;3.83;3.50;;;;;;;15.19;100.00;100696.19;4975111;28;20201;-76
2023/08/11 03:42:21;;;;;;;4.27;3.97;;;;;;;15.18;100.00;100702.31;4987040;28;20213;-76
2023/08/11 03:44:47;;;;;;;4.57;4.00;;;;;;;15.15;100.00;100701.50;4973020;28;20194;-78
2023/08/11 03:47:12;;;;;;;4.40;4.00;;;;;;;15.12;100.00;100698.97;4982410;28;20729;-76
2023/08/11 03:49:37;;;;;;;6.00;4.30;;;;;;;15.07;100.00;100705.13;4985889;28;20706;-76
2023/08/11 03:52:03;;;;;;;3.70;3.40;;;;;;;15.06;100.00;100702.53;4979731;28;20311;-76
2023/08/11 03:54:28;;;;;;;6.40;3.97;;;;;;;15.02;100.00;100704.34;4976480;28;20672;-77
2023/08/11 03:56:54;;;;;;;4.97;4.10;;;;;;;15.02;100.00;100703.50;4992240;28;20255;-78
2023/08/11 03:59:20;;;;;;;4.07;3.77;;;;;;;15.03;100.00;100707.84;4986575;28;20185;-77
2023/08/11 04:01:45;;;;;;;4.13;3.57;;;;;;;15.02;100.00;100712.19;4978866;28;20709;-77
2023/08/11 04:04:10;;;;;;;4.10;3.80;;;;;;;15.04;100.00;100720.81;4973918;28;20189;-77
2023/08/11 04:06:36;;;;;;;4.27;3.87;;;;;;;15.05;100.00;100722.53;4981597;28;20219;-76
2023/08/11 04:09:02;;;;;;;4.40;4.10;;;;;;;15.09;100.00;100723.34;4999513;28;20192;-76
2023/08/11 04:11:28;;;;;;;4.33;3.93;;;;;;;15.11;100.00;100712.91;4982529;28;20227;-76
2023/08/11 04:13:56;;;;;;;4.27;3.97;;;;;;;15.12;100.00;100714.59;4985965;28;20193;-76
2023/08/11 04:16:21;;;;;;;4.40;4.00;;;;;;;15.14;100.00;100713.69;4976528;28;20686;-76
2023/08/11 04:18:47;;;;;;;4.97;4.47;;;;;;;15.16;100.00;100711.03;4973036;28;20279;-77
2023/08/11 04:21:12;;;;;;;4.20;3.87;;;;;;;15.19;100.00;100710.97;4997015;28;20597;-78
2023/08/11 04:23:37;;;;;;;4.50;4.10;;;;;;;15.21;100.00;100707.44;4983815;28;20252;-78
2023/08/11 04:26:05;;;;;;;4.60;4.20;;;;;;;15.26;100.00;100714.31;4982678;28;20574;-79
2023/08/11 04:28:31;;;;;;;5.17;4.67;;;;;;;15.30;100.00;100713.34;4980879;28;20272;-76
2023/08/11 04:30:56;;;;;;;5.83;4.37;;;;;;;15.36;100.00;100706.25;4984258;28;22534;-77
2023/08/11 04:33:21;;;;;;;6.93;4.67;;;;;;;15.44;100.00;100708.69;4986308;28;20181;-77
2023/08/11 04:35:48;;;;;;;4.67;4.10;;;;;;;15.50;100.00;100705.91;4999519;28;20195;-76
2023/08/11 04:38:13;;;;;;;5.93;4.83;;;;;;;15.54;100.00;100710.19;4981556;28;20201;-77
2023/08/11 04:40:39;;;;;;;6.03;4.47;;;;;;;15.56;100.00;100712.78;4988181;28;20217;-77
2023/08/11 04:43:04;;;;;;;4.80;4.40;;;;;;;15.63;100.00;100711.72;4988740;28;20280;-77
2023/08/11 04:45:29;;;;;;;4.50;4.10;;;;;;;15.72;100.00;100709.81;4994215;28;20188;-76
2023/08/11 04:47:55;;;;;;;4.53;4.13;;;;;;;15.78;100.00;100728.78;4990295;28;20208;-76
2023/08/11 04:50:20;;;;;;;4.20;3.80;;;;;;;15.82;100.00;100719.97;5008748;28;20201;-77
2023/08/11 04:52:45;;;;;;;4.00;3.70;;;;;;;15.83;100.00;100726.06;4995932;28;20253;-77
2023/08/11 04:55:13;;;;;;;4.80;4.17;;;;;;;15.83;100.00;100731.28;4991609;28;20193;-77
2023/08/11 04:57:42;;;;;;;3.90;3.60;;;;;;;15.87;100.00;100729.47;4986391;28;20185;-77
2023/08/11 05:00:13;;;;;;;4.13;3.83;;;;;;;15.92;100.00;100732.84;5008829;28;20185;-76
2023/08/11 05:02:39;;;;;;;3.93;3.63;;;;;;;15.97;100.00;100739.66;4988783;28;20213;-76
2023/08/11 05:05:06;;;;;;;4.40;4.00;;;;;;;16.04;100.00;100739.50;4993403;28;20177;-76
2023/08/11 05:07:31;;;;;;;3.73;3.43;;;;;;;16.09;100.00;100741.13;4994515;28;20627;-76
2023/08/11 05:09:56;;;;;;;4.13;3.73;;;;;;;16.17;100.00;100753.13;4991869;28;20673;-75
2023/08/11 05:12:22;;;;;;;4.00;3.70;;;;;;;16.23;100.00;100743.38;4990805;28;20255;-76
2023/08/11 05:14:47;;;;;;;4.00;3.60;;;;;;;16.30;100.00;100757.13;4994282;28;20572;-76
2023/08/11 05:17:13;;;;;;;4.40;4.00;;;;;;;16.35;100.00;100752.66;4992486;28;20658;-76
2023/08/11 05:19:38;;;;;;;4.83;4.43;;;;;;;16.41;100.00;100749.88;4986860;28;20204;-77
2023/08/11 05:22:03;;;;;;;4.73;4.37;;;;;;;16.47;100.00;100754.13;4993814;28;20258;-75
2023/08/11 05:24:29;;;;;;;4.60;4.20;;;;;;;16.56;100.00;100763.47;4991392;28;20196;-77
2023/08/11 05:26:54;;;;;;;4.93;4.53;;;;;;;16.64;100.00;100756.28;4986433;28;20206;-76
2023/08/11 05:29:19;;;;;;;3.93;3.60;;;;;;;16.76;100.00;100760.31;4988087;28;20664;-75
2023/08/11 05:31:45;;;;;;;4.60;4.20;;;;;;;16.90;100.00;100759.91;4986378;28;20228;-76
2023/08/11 05:34:10;;;;;;;6.83;5.27;;;;;;;17.06;100.00;100756.00;4989986;28;20195;-76
2023/08/11 05:36:35;;;;;;;4.80;4.30;;;;;;;17.41;100.00;100765.50;4981485;28;20190;-76
2023/08/11 05:39:01;;;;;;;4.50;4.10;;;;;;;17.93;100.00;100761.25;4980155;28;20194;-76
2023/08/11 05:41:26;;;;;;;4.63;4.27;;;;;;;18.52;100.00;100758.47;4989761;28;20344;-76
2023/08/11 05:43:51;;;;;;;4.13;3.83;;;;;;;19.14;100.00;100757.16;4975463;28;20197;-76
2023/08/11 05:46:17;;;;;;;4.97;4.30;;;;;;;19.57;100.00;100756.44;4984840;28;21036;-76
2023/08/11 05:48:47;;;;;;;6.03;4.27;;;;;;;19.91;100.00;100755.13;4996090;28;20186;-77
2023/08/11 05:51:13;;;;;;;5.27;3.63;;;;;;;20.48;100.00;100759.81;4986829;28;20286;-75
2023/08/11 05:53:38;;;;;;;5.40;3.73;;;;;;;20.97;100.00;100760.28;4993978;28;20256;-76
2023/08/11 05:56:04;;;;;;;4.73;3.47;;;;;;;21.58;98.50;100760.16;4989209;28;20590;-77
2023/08/11 05:58:29;;;;;;;5.80;4.00;;;;;;;22.05;96.21;100762.28;4987178;28;20181;-76
2023/08/11 06:00:54;;;;;;;8.80;3.83;;;;;;;22.56;93.94;100758.88;4986266;28;20193;-76
2023/08/11 06:03:29;;;;;;;6.77;4.00;;;;;;;23.09;91.44;100756.97;5009167;28;20189;-76
2023/08/11 06:05:58;;;;;;;5.40;4.40;;;;;;;22.73;90.72;100759.78;4985947;28;21024;-75
2023/08/11 06:08:24;;;;;;;11.37;4.63;;;;;;;23.00;89.68;100757.47;4992198;28;20982;-76
2023/08/11 06:10:49;;;;;;;7.90;4.40;;;;;;;23.56;87.53;100759.75;4986881;28;20324;-77
2023/08/11 06:13:14;;;;;;;7.03;4.03;;;;;;;23.40;86.80;100760.59;4989628;28;20227;-77
2023/08/11 06:15:39;;;;;;;6.30;3.37;;;;;;;23.24;87.07;100762.38;4988727;28;20192;-77
2023/08/11 06:18:05;;;;;;;9.80;3.90;;;;;;;23.27;87.49;100762.22;4987930;28;20192;-77
2023/08/11 06:20:30;;;;;;;6.83;5.20;;;;;;;23.40;86.70;100757.97;4994716;28;20259;-77
2023/08/11 06:22:55;;;;;;;8.40;4.37;;;;;;;23.81;84.57;100764.50;4988616;28;20347;-76
2023/08/11 06:25:21;;;;;;;9.37;5.07;;;;;;;24.00;84.33;100759.03;4986866;28;20660;-77
2023/08/11 06:27:46;;;;;;;9.17;7.47;;;;;;;24.24;82.68;100752.41;4989294;28;20205;-77
2023/08/11 06:30:12;;;;;;;8.10;5.85;;;;;;;24.41;82.17;100756.69;4988136;28;20566;-76
2023/08/11 06:32:41;;;;;;;7.40;5.10;;;;;;;24.66;82.03;100754.25;4986903;28;20212;-76
2023/08/11 06:35:07;;;;;;;5.78;4.43;;;;;;;24.86;80.86;100756.66;4986963;28;20196;-76
2023/08/11 06:37:32;;;;;;;6.85;4.63;;;;;;;24.95;80.27;100759.59;4988243;28;20181;-76
2023/08/11 06:39:58;;;;;;;7.10;4.20;;;;;;;25.20;80.77;100760.69;4984947;28;20190;-77
2023/08/11 06:42:24;;;;;;;3.97;3.42;;;;;;;25.29;79.67;100761.91;4983424;28;20212;-76
2023/08/11 06:44:49;;;;;;;4.75;3.67;;;;;;;25.51;79.06;100756.09;4985011;28;20207;-77
2023/08/11 06:47:15;;;;;;;4.80;3.20;;;;;;;25.53;79.25;100761.34;4984937;28;20768;-75
2023/08/11 06:49:40;;;;;;;4.07;3.55;;;;;;;25.52;79.52;100757.81;4988129;28;20181;-75
2023/08/11 06:52:05;;;;;;;4.65;3.28;;;;;;;25.85;78.43;100764.50;4986096;28;20233;-76
2023/08/11 06:54:31;;;;;;;3.75;3.25;;;;;;;26.20;77.78;100768.44;4998526;28;20279;-77
2023/08/11 06:56:56;;;;;;;3.50;2.75;;;;;;;26.18;77.50;100767.69;4983802;28;20328;-75
2023/08/11 06:59:21;;;;;;;3.63;2.80;;;;;;;26.26;76.79;100762.75;4985515;28;20221;-76
2023/08/11 07:01:47;;;;;;;3.33;3.05;;;;;;;26.53;75.70;100771.56;4990380;28;20332;-76
2023/08/11 07:04:12;;;;;;;4.22;3.60;;;;;;;26.24;76.03;100775.25;4990791;28;20189;-76
2023/08/11 07:06:37;;;;;;;2.97;2.78;;;;;;;26.31;77.23;100781.84;4990125;28;20755;-77
2023/08/11 07:09:03;;;;;;;3.28;2.97;;;;;;;26.47;77.38;100779.00;4990033;28;20184;-76
2023/08/11 07:11:28;;;;;;;3.17;2.72;;;;;;;26.77;77.06;100774.34;4986777;28;20211;-76
2023/08/11 07:13:53;;;;;;;5.65;3.28;;;;;;;26.61;76.83;100783.38;4990276;28;20191;-76
2023/08/11 07:16:19;;;;;;;3.40;3.10;;;;;;;26.74;76.80;100788.66;4979151;28;20194;-76
2023/08/11 07:18:44;;;;;;;3.20;2.90;;;;;;;26.55;76.67;100778.47;4979500;28;20231;-76
2023/08/11 07:21:09;;;;;;;4.47;3.15;;;;;;;26.26;77.29;100783.97;4986687;28;20204;-76
2023/08/11 07:23:35;;;;;;;5.82;3.72;;;;;;;26.16;77.46;100789.03;4986521;28;20221;-77
2023/08/11 07:26:00;;;;;;;3.47;2.92;;;;;;;26.14;78.83;100782.13;4992364;28;20392;-77
2023/08/11 07:28:25;;;;;;;5.45;3.25;;;;;;;26.58;77.79;100783.56;4986199;28;20297;-77
2023/08/11 07:30:51;;;;;;;4.50;2.85;;;;;;;26.88;77.58;100786.88;4985130;28;20181;-77
2023/08/11 07:33:16;;;;;;;3.50;3.08;;;;;;;27.37;76.00;100782.56;4998177;28;20280;-77
2023/08/11 07:35:42;;;;;;;4.75;3.53;;;;;;;27.08;75.63;100785.47;4982577;28;20952;-79
2023/08/11 07:38:07;;;;;;;5.35;3.88;;;;;;;27.48;74.95;100787.97;4983235;28;20294;-77
2023/08/11 07:40:32;;;;;;;3.13;2.83;;;;;;;27.49;75.48;100787.00;4987921;28;20199;-78
2023/08/11 07:42:58;;;;;;;3.65;3.35;;;;;;;27.45;75.55;100790.84;4987307;28;20696;-77
2023/08/11 07:45:24;;;;;;;5.28;4.32;;;;;;;27.33;74.20;100791.69;4987587;28;20181;-79
2023/08/11 07:47:49;;;;;;;5.93;3.92;;;;;;;27.50;73.97;100803.78;4983453;28;21088;-79
2023/08/11 07:50:15;;;;;;;3.88;3.45;;;;;;;27.61;74.57;100790.56;4980116;28;20189;-78
2023/08/11 07:52:40;;;;;;;4.78;2.97;;;;;;;27.68;74.73;100799.78;4983794;28;20221;-78
2023/08/11 07:55:06;;;;;;;4.65;3.35;;;;;;;27.91;73.82;100793.75;4984192;28;20190;-78
2023/08/11 07:57:31;;;;;;;3.80;3.50;;;;;;;27.99;73.73;100794.88;4984662;28;21828;-78
2023/08/11 07:59:57;;;;;;;4.68;3.65;;;;;;;28.15;72.38;100793.75;4986718;28;20607;-78
2023/08/11 08:02:22;;;;;;;3.58;3.28;;;;;;;28.04;73.51;100801.66;4987743;28;20240;-79
2023/08/11 08:04:48;;;;;;;4.88;3.22;;;;;;;28.01;73.34;100800.06;4986786;28;20199;-77
2023/08/11 08:07:13;;;;;;;3.30;2.97;;;;;;;27.94;72.95;100793.50;4980028;28;20416;-78
2023/08/11 08:09:42;;;;;;;3.83;3.53;;;;;;;28.04;72.17;100801.66;4982096;28;20185;-78
2023/08/11 08:12:08;;;;;;;3.28;3.05;;;;;;;27.66;72.99;100799.06;4987789;28;20215;-78
2023/08/11 08:14:33;;;;;;;3.80;3.10;;;;;;;27.68;74.02;100797.13;4991603;28;20189;-78
2023/08/11 08:17:01;;;;;;;4.70;3.33;;;;;;;27.57;74.02;100798.88;5008215;28;20310;-77
2023/08/11 08:19:26;;;;;;;5.65;3.83;;;;;;;27.80;73.35;100798.06;4985964;28;20193;-79
2023/08/11 08:21:52;;;;;;;3.88;3.35;;;;;;;27.97;73.22;100793.28;4992818;28;20231;-79
2023/08/11 08:24:17;;;;;;;3.92;3.42;;;;;;;27.85;73.22;100797.69;4994540;28;20180;-78
2023/08/11 08:26:43;;;;;;;3.92;3.00;;;;;;;27.76;74.30;100803.69;4995216;28;20216;-80
2023/08/11 08:29:09;;;;;;;5.55;3.42;;;;;;;27.66;74.73;100799.06;4996681;28;20192;-78
2023/08/11 08:31:35;;;;;;;3.40;3.10;;;;;;;27.50;75.20;100790.50;4992974;28;20219;-82
2023/08/11 08:34:00;;;;;;;4.57;3.70;;;;;;;27.22;75.92;100805.75;4985912;28;20184;-79
2023/08/11 08:36:26;;;;;;;3.95;3.65;;;;;;;27.17;75.37;100802.56;4990053;28;20178;-79
2023/08/11 08:38:52;;;;;;;4.05;3.75;;;;;;;27.03;74.55;100804.38;4983745;28;20189;-80
2023/08/11 08:41:27;;;;;;;3.78;3.40;;;;;;;26.70;75.37;100803.09;4986764;28;20224;-78
2023/08/11 08:43:54;;;;;;;5.65;4.30;;;;;;;26.62;75.71;100808.09;4986233;28;22104;-77
2023/08/11 08:46:21;;;;;;;6.13;3.90;;;;;;;26.55;76.89;100801.50;5002103;28;20305;-77
2023/08/11 08:48:56;;;;;;;4.50;4.10;;;;;;;26.34;77.41;100802.00;4982149;28;20723;-77
2023/08/11 08:51:22;;;;;;;5.97;4.47;;;;;;;26.23;77.80;100800.06;4984334;28;20220;-77
2023/08/11 08:53:48;;;;;;;4.80;4.17;;;;;;;26.06;79.52;100800.31;5008088;28;20200;-77
2023/08/11 08:56:14;;;;;;;4.10;3.70;;;;;;;25.88;79.79;100800.56;4994645;28;20209;-77
2023/08/11 08:58:41;;;;;;;4.20;3.87;;;;;;;25.80;80.97;100802.88;4990990;28;20724;-78
2023/08/11 09:01:09;;;;;;;5.23;3.80;;;;;;;25.75;79.83;100800.53;4989895;28;20216;-77
2023/08/11 09:03:36;;;;;;;4.33;3.60;;;;;;;25.70;79.76;100795.53;4990579;28;20252;-78
2023/08/11 09:06:05;;;;;;;4.20;3.87;;;;;;;25.64;79.97;100798.59;4991844;28;20181;-77
2023/08/11 09:08:31;;;;;;;4.93;4.37;;;;;;;25.51;80.59;100800.31;4992934;28;20201;-78
2023/08/11 09:10:57;;;;;;;4.17;3.87;;;;;;;25.46;81.80;100794.44;4985818;28;20316;-78
2023/08/11 09:13:22;;;;;;;4.13;3.70;;;;;;;25.55;82.46;100792.06;4991562;28;20200;-77
2023/08/11 09:15:47;;;;;;;4.77;3.93;;;;;;;25.60;81.79;100796.22;4982930;28;20189;-77
2023/08/11 09:18:18;;;;;;;4.47;4.07;;;;;;;25.62;82.28;100795.19;4987022;28;20200;-78
2023/08/11 09:20:48;;;;;;;5.43;4.10;;;;;;;25.60;82.54;100794.41;4993990;28;20646;-79
2023/08/11 09:23:16;;;;;;;4.23;3.40;;;;;;;25.66;82.17;100793.16;4993380;28;20185;-79
2023/08/11 09:25:41;;;;;;;5.73;3.77;;;;;;;25.69;80.82;100788.53;4991234;28;20188;-78
2023/08/11 09:28:08;;;;;;;6.10;4.20;;;;;;;25.61;80.33;100787.34;4998291;28;20212;-78
2023/08/11 09:30:33;;;;;;;4.40;4.00;;;;;;;25.57;80.96;100786.66;4993543;28;20318;-79
2023/08/11 09:33:00;;;;;;;5.07;3.80;;;;;;;25.52;82.23;100781.66;4986167;28;20205;-79
2023/08/11 09:35:26;;;;;;;4.10;3.70;;;;;;;25.58;82.81;100780.41;4994854;28;20186;-78
2023/08/11 09:37:53;;;;;;;4.00;3.70;;;;;;;25.71;81.42;100783.13;4988407;28;20185;-78
2023/08/11 09:40:18;;;;;;;4.57;3.47;;;;;;;25.83;82.50;100776.19;4990218;28;20189;-77
2023/08/11 09:42:44;;;;;;;4.40;4.00;;;;;;;25.89;81.93;100777.56;4994028;28;20765;-77
2023/08/11 09:45:10;;;;;;;4.60;4.00;;;;;;;25.98;80.04;100776.97;4992520;28;20193;-78
2023/08/11 09:47:35;;;;;;;5.00;4.10;;;;;;;26.02;79.70;100781.13;4988527;28;20219;-77
2023/08/11 09:50:01;;;;;;;4.77;4.33;;;;;;;26.07;78.74;100775.50;4993658;28;20185;-77
2023/08/11 09:52:29;;;;;;;4.23;3.83;;;;;;;26.08;78.19;100772.75;4994492;28;20340;-77
2023/08/11 09:54:55;;;;;;;4.20;3.80;;;;;;;26.11;78.40;100777.88;4993044;28;20190;-78
2023/08/11 09:57:22;;;;;;;4.37;3.67;;;;;;;26.32;76.61;100785.34;4982841;28;20182;-77
2023/08/11 09:59:49;;;;;;;4.37;3.97;;;;;;;26.22;78.43;100779.81;4991459;28;20195;-79
2023/08/11 10:02:20;;;;;;;4.53;3.47;;;;;;;26.30;78.50;100779.28;4990392;28;20223;-78
2023/08/11 10:04:56;;;;;;;4.13;3.63;;;;;;;26.37;78.45;100785.91;4994221;28;20182;-77
2023/08/11 10:07:29;;;;;;;4.87;4.13;;;;;;;26.30;77.97;100777.50;4994845;28;20204;-78
2023/08/11 10:09:58;;;;;;;3.63;3.33;;;;;;;26.39;77.64;100780.47;4991987;28;20189;-78
2023/08/11 10:12:24;;;;;;;4.17;3.57;;;;;;;26.44;78.54;100784.50;4987996;28;20208;-76
2023/08/11 10:14:50;;;;;;;4.77;4.37;;;;;;;26.46;77.95;100776.47;4990066;28;20596;-77
2023/08/11 10:17:16;;;;;;;4.13;3.80;;;;;;;26.57;78.57;100779.22;4984656;28;20189;-76
2023/08/11 10:19:42;;;;;;;4.33;3.93;;;;;;;26.66;77.70;100771.56;4983824;28;20189;-77
2023/08/11 10:22:08;;;;;;;4.30;3.90;;;;;;;26.64;77.93;100777.00;4982074;28;20283;-77
2023/08/11 10:24:37;;;;;;;4.63;4.07;;;;;;;26.65;78.53;100773.38;4978839;28;20186;-77
2023/08/11 10:27:03;;;;;;;4.10;3.70;;;;;;;26.71;79.01;100777.41;4988819;28;20221;-77
2023/08/11 10:29:28;;;;;;;4.53;3.70;;;;;;;26.73;79.25;100772.84;4989889;28;20192;-78
2023/08/11 10:31:56;;;;;;;4.30;3.90;;;;;;;26.85;77.73;100761.41;4986770;28;20786;-76
2023/08/11 10:34:23;;;;;;;5.03;4.07;;;;;;;26.89;77.55;100764.69;4981878;28;20205;-79
2023/08/11 10:36:49;;;;;;;4.80;3.83;;;;;;;27.00;76.44;100764.75;4980880;28;20945;-77
2023/08/11 10:39:18;;;;;;;4.17;3.77;;;;;;;26.77;76.37;100758.41;4985277;28;20562;-77
2023/08/11 10:41:45;;;;;;;5.10;3.73;;;;;;;26.61;77.87;100751.50;4989061;28;21070;-78
2023/08/11 10:44:10;;;;;;;4.60;4.20;;;;;;;26.54;78.39;100752.88;4983938;28;20945;-76
2023/08/11 10:46:36;;;;;;;4.23;3.83;;;;;;;26.80;79.46;100741.44;4982544;28;20185;-76
2023/08/11 10:49:05;;;;;;;3.47;3.27;;;;;;;26.96;79.67;100744.72;4973724;28;20189;-76
2023/08/11 10:51:37;;;;;;;4.30;3.90;;;;;;;27.10;77.49;100737.56;4988101;28;20236;-77
2023/08/11 10:54:05;;;;;;;4.37;3.97;;;;;;;27.06;77.75;100734.28;4988720;28;20284;-76
2023/08/11 10:56:36;;;;;;;4.33;3.93;;;;;;;27.07;79.09;100731.50;4991459;28;20235;-78
2023/08/11 10:59:17;;;;;;;3.93;3.63;;;;;;;27.15;78.50;100728.28;4979238;28;20196;-76
2023/08/11 11:01:47;;;;;;;4.13;3.83;;;;;;;26.80;77.67;100731.66;4988321;28;20767;-77
2023/08/11 11:04:14;;;;;;;4.20;3.90;;;;;;;26.88;77.61;100725.78;4984915;28;20401;-76
2023/08/11 11:06:39;;;;;;;3.97;3.67;;;;;;;27.04;77.55;100723.75;4979805;28;20276;-77
2023/08/11 11:09:09;;;;;;;4.27;3.97;;;;;;;27.19;77.47;100713.84;4995162;28;20294;-77
2023/08/11 11:11:36;;;;;;;4.00;3.70;;;;;;;27.29;77.60;100718.47;4984735;28;20240;-77
2023/08/11 11:14:05;;;;;;;3.67;3.33;;;;;;;27.33;78.61;100717.28;5000955;28;20614;-78
2023/08/11 11:16:32;;;;;;;4.03;3.73;;;;;;;27.45;78.03;100720.88;4984887;28;20196;-78
2023/08/11 11:18:58;;;;;;;4.53;4.13;;;;;;;27.52;78.30;100720.34;4984066;28;20189;-75